createdAt,value
2023-03-17T00:01:38.611Z,100667.13
2023-03-17T00:04:06.950Z,100666.31
2023-03-17T00:06:35.207Z,100668.16
2023-03-17T00:09:03.184Z,100670.88
2023-03-17T00:11:31.151Z,100669.00
2023-03-17T00:14:00.575Z,100675.44
2023-03-17T00:16:44.294Z,100673.56
2023-03-17T00:19:16.611Z,100669.22
2023-03-17T00:21:45.204Z,100678.75
2023-03-17T00:24:14.981Z,100672.53
2023-03-17T00:26:43.395Z,100670.69
2023-03-17T00:29:13.344Z,100676.25
2023-03-17T00:31:49.468Z,100679.59
2023-03-17T00:34:18.526Z,100671.69
2023-03-17T00:36:47.442Z,100678.75
2023-03-17T00:41:43.673Z,100679.59
2023-03-17T00:44:13.166Z,100676.25
2023-03-17T00:46:41.773Z,100670.88
2023-03-17T00:51:43.807Z,100665.66
2023-03-17T00:54:11.998Z,100665.88
2023-03-17T00:56:40.149Z,100663.19
2023-03-17T00:59:13.487Z,100658.63
2023-03-17T01:01:41.903Z,100658.84
2023-03-17T01:04:10.705Z,100657.16
2023-03-17T01:06:39.091Z,100660.91
2023-03-17T01:09:08.325Z,100667.94
2023-03-17T01:11:36.658Z,100657.38
2023-03-17T01:14:04.747Z,100659.22
2023-03-17T01:16:34.144Z,100657.56
2023-03-17T01:19:02.324Z,100659.22
2023-03-17T01:21:30.276Z,100661.91
2023-03-17T01:23:58.221Z,100661.31
2023-03-17T01:26:26.208Z,100663.78
2023-03-17T01:28:54.893Z,100664.59
2023-03-17T01:31:23.561Z,100655.91
2023-03-17T01:33:52.995Z,100655.69
2023-03-17T01:36:21.056Z,100647.59
2023-03-17T01:38:50.838Z,100638.88
2023-03-17T01:41:20.830Z,100647.41
2023-03-17T01:43:48.858Z,100651.78
2023-03-17T01:46:22.525Z,100651.78
2023-03-17T01:49:05.909Z,100651.78
2023-03-17T01:51:35.859Z,100651.78
2023-03-17T01:54:06.798Z,100649.06
2023-03-17T01:56:35.221Z,100646.38
2023-03-17T01:59:04.780Z,100637.66
2023-03-17T02:01:35.245Z,100646.78
2023-03-17T02:04:04.924Z,100651.34
2023-03-17T02:06:32.978Z,100645.97
2023-03-17T02:09:01.678Z,100649.66
2023-03-17T02:11:30.151Z,100653.41
2023-03-17T02:13:58.200Z,100646.16
2023-03-17T02:16:26.712Z,100650.53
2023-03-17T02:18:54.627Z,100653.41
2023-03-17T02:21:39.381Z,100648.84
2023-03-17T02:24:10.857Z,100648.19
2023-03-17T02:26:38.840Z,100645.50
2023-03-17T02:29:06.899Z,100646.56
2023-03-17T02:31:34.944Z,100651.94
2023-03-17T02:34:03.224Z,100643.84
2023-03-17T02:36:31.292Z,100653.81
2023-03-17T02:39:01.075Z,100656.69
2023-03-17T02:41:29.335Z,100661.06
2023-03-17T02:43:57.282Z,100661.06
2023-03-17T02:46:25.437Z,100663.75
2023-03-17T02:48:53.517Z,100662.72
2023-03-17T02:51:21.470Z,100667.28
2023-03-17T02:53:49.567Z,100666.25
2023-03-17T02:56:18.956Z,100671.63
2023-03-17T02:58:47.037Z,100676.84
2023-03-17T03:01:15.771Z,100671.44
2023-03-17T03:03:43.835Z,100677.84
2023-03-17T03:06:11.813Z,100682.22
2023-03-17T03:08:39.852Z,100676.00
2023-03-17T03:11:07.833Z,100682.22
2023-03-17T03:13:37.737Z,100688.44
2023-03-17T03:16:06.188Z,100688.63
2023-03-17T03:18:34.247Z,100688.63
2023-03-17T03:21:02.208Z,100688.84
2023-03-17T03:23:30.182Z,100689.84
2023-03-17T03:25:58.175Z,100696.09
2023-03-17T03:28:26.165Z,100694.41
2023-03-17T03:30:55.487Z,100695.47
2023-03-17T03:33:23.526Z,100704.59
2023-03-17T03:35:51.543Z,100700.22
2023-03-17T03:38:19.529Z,100718.06
2023-03-17T03:40:47.518Z,100705.59
2023-03-17T03:43:22.766Z,100709.13
2023-03-17T03:45:51.808Z,100709.13
2023-03-17T03:48:21.213Z,100706.63
2023-03-17T03:50:49.248Z,100713.69
2023-03-17T03:53:17.113Z,100720.13
2023-03-17T03:55:45.032Z,100718.25
2023-03-17T03:58:12.964Z,100723.63
2023-03-17T04:00:41.506Z,100719.28
2023-03-17T04:03:09.535Z,100726.31
2023-03-17T04:05:38.839Z,100716.38
2023-03-17T04:08:07.068Z,100716.38
2023-03-17T04:10:35.073Z,100718.06
2023-03-17T04:13:03.018Z,100728.84
2023-03-17T04:15:31.254Z,100728.84
2023-03-17T04:17:59.216Z,100735.88
2023-03-17T04:20:27.215Z,100735.88
2023-03-17T04:22:56.471Z,100739.63
2023-03-17T04:25:24.514Z,100737.94
2023-03-17T04:27:52.587Z,100739.81
2023-03-17T04:30:20.723Z,100736.28
2023-03-17T04:32:48.738Z,100741.84
2023-03-17T04:35:17.571Z,100747.06
2023-03-17T04:37:45.597Z,100756.16
2023-03-17T04:40:15.906Z,100749.09
2023-03-17T04:42:43.894Z,100743.72
2023-03-17T04:45:14.119Z,100749.94
2023-03-17T04:47:42.185Z,100747.44
2023-03-17T04:50:11.714Z,100752.84
2023-03-17T04:52:39.662Z,100752.84
2023-03-17T04:55:09.296Z,100751.16
2023-03-17T04:57:38.696Z,100754.69
2023-03-17T05:00:07.809Z,100747.63
2023-03-17T05:02:35.828Z,100755.53
2023-03-17T05:05:03.824Z,100754.50
2023-03-17T05:07:33.994Z,100757.00
2023-03-17T05:10:02.208Z,100760.53
2023-03-17T05:12:30.250Z,100755.13
2023-03-17T05:14:59.756Z,100759.50
2023-03-17T05:17:27.815Z,100758.47
2023-03-17T05:19:55.905Z,100755.78
2023-03-17T05:22:23.986Z,100756.78
2023-03-17T05:24:51.925Z,100751.63
2023-03-17T05:27:19.831Z,100757.84
2023-03-17T05:29:47.781Z,100759.50
2023-03-17T05:32:17.190Z,100752.44
2023-03-17T05:34:46.364Z,100764.22
2023-03-17T05:37:14.406Z,100767.78
2023-03-17T05:39:42.367Z,100774.19
2023-03-17T05:42:10.273Z,100772.31
2023-03-17T05:44:38.251Z,100775.66
2023-03-17T05:47:08.050Z,100775.66
2023-03-17T05:49:37.423Z,100775.66
2023-03-17T05:52:05.385Z,100781.88
2023-03-17T05:54:33.358Z,100781.03
2023-03-17T05:57:01.372Z,100789.78
2023-03-17T05:59:29.871Z,100790.19
2023-03-17T06:01:57.803Z,100789.19
2023-03-17T06:04:26.510Z,100797.06
2023-03-17T06:06:55.979Z,100797.69
2023-03-17T06:09:23.989Z,100808.09
2023-03-17T06:11:52.114Z,100815.16
2023-03-17T06:14:20.014Z,100813.06
2023-03-17T06:16:47.944Z,100810.19
2023-03-17T06:19:15.890Z,100810.19
2023-03-17T06:21:43.937Z,100807.28
2023-03-17T06:24:13.365Z,100809.16
2023-03-17T06:26:44.453Z,100816.22
2023-03-17T06:29:12.702Z,100814.38
2023-03-17T06:31:42.293Z,100823.47
2023-03-17T06:34:10.387Z,100823.47
2023-03-17T06:36:39.260Z,100818.94
2023-03-17T06:39:07.224Z,100822.22
2023-03-17T06:41:36.638Z,100828.47
2023-03-17T06:44:05.419Z,100830.78
2023-03-17T06:46:33.623Z,100821.88
2023-03-17T06:49:01.573Z,100828.91
2023-03-17T06:51:29.566Z,100824.16
2023-03-17T06:53:57.534Z,100819.41
2023-03-17T06:56:30.123Z,100819.19
2023-03-17T06:59:00.596Z,100821.72
2023-03-17T07:01:28.958Z,100818.78
2023-03-17T07:03:57.010Z,100812.19
2023-03-17T07:06:25.040Z,100817.38
2023-03-17T07:08:53.026Z,100820.09
2023-03-17T07:11:23.654Z,100819.88
2023-03-17T07:13:52.282Z,100829.41
2023-03-17T07:16:22.344Z,100823.66
2023-03-17T07:18:50.688Z,100821.59
2023-03-17T07:21:18.642Z,100820.38
2023-03-17T07:23:46.597Z,100818.72
2023-03-17T07:26:14.605Z,100822.06
2023-03-17T07:28:42.530Z,100828.91
2023-03-17T07:31:14.268Z,100829.53
2023-03-17T07:33:43.712Z,100832.88
2023-03-17T07:36:11.757Z,100830.16
2023-03-17T07:38:39.915Z,100834.56
2023-03-17T07:41:10.232Z,100830.81
2023-03-17T07:43:39.164Z,100839.72
2023-03-17T07:46:07.476Z,100841.59
2023-03-17T07:48:37.682Z,100840.16
2023-03-17T07:51:07.464Z,100833.75
2023-03-17T07:53:35.451Z,100830.66
2023-03-17T07:56:03.427Z,100841.25
2023-03-17T07:58:31.380Z,100837.50
2023-03-17T08:00:59.417Z,100840.84
2023-03-17T08:03:45.780Z,100838.78
2023-03-17T08:06:15.206Z,100834.22
2023-03-17T08:08:43.289Z,100835.88
2023-03-17T08:11:11.527Z,100832.16
2023-03-17T08:13:39.486Z,100829.25
2023-03-17T08:16:08.152Z,100833.41
2023-03-17T08:18:36.654Z,100842.31
2023-03-17T08:21:04.976Z,100848.53
2023-03-17T08:23:34.431Z,100854.59
2023-03-17T08:26:03.161Z,100850.00
2023-03-17T08:28:31.493Z,100825.53
2023-03-17T08:31:10.398Z,100826.81
2023-03-17T08:33:47.341Z,100826.81
2023-03-17T08:36:15.310Z,100831.16
2023-03-17T08:38:44.913Z,100833.47
2023-03-17T08:41:14.085Z,100829.72
2023-03-17T08:43:42.151Z,100827.66
2023-03-17T08:46:11.391Z,100823.94
2023-03-17T08:48:39.915Z,100831.81
2023-03-17T08:51:08.057Z,100840.53
2023-03-17T08:53:36.124Z,100840.53
2023-03-17T08:56:07.041Z,100820.59
2023-03-17T08:58:35.103Z,100813.38
2023-03-17T09:01:03.944Z,100809.63
2023-03-17T09:03:32.954Z,100815.03
2023-03-17T09:06:01.029Z,100798.81
2023-03-17T09:08:29.348Z,100812.13
2023-03-17T09:10:57.375Z,100826.44
2023-03-17T09:13:27.172Z,100827.28
2023-03-17T09:15:56.286Z,100824.38
2023-03-17T09:18:24.243Z,100832.47
2023-03-17T09:20:52.150Z,100833.09
2023-03-17T09:23:20.863Z,100834.78
2023-03-17T09:25:48.886Z,100837.25
2023-03-17T09:28:17.611Z,100834.38
2023-03-17T09:30:47.044Z,100836.03
2023-03-17T09:33:15.809Z,100838.53
2023-03-17T09:35:43.852Z,100838.31
2023-03-17T09:38:11.938Z,100837.06
2023-03-17T09:40:45.403Z,100837.94
2023-03-17T09:43:17.500Z,100833.16
2023-03-17T09:45:47.137Z,100829.44
2023-03-17T09:48:39.887Z,100829.03
2023-03-17T09:51:09.162Z,100829.66
2023-03-17T09:53:39.385Z,100831.31
2023-03-17T09:56:09.856Z,100833.59
2023-03-17T09:58:37.948Z,100833.59
2023-03-17T10:01:09.846Z,100825.31
2023-03-17T10:03:39.111Z,100827.78
2023-03-17T10:06:30.762Z,100829.47
2023-03-17T10:09:00.741Z,100824.91
2023-03-17T10:11:35.220Z,100819.28
2023-03-17T10:14:04.440Z,100825.72
2023-03-17T10:16:38.212Z,100830.72
2023-03-17T10:19:10.470Z,100821.59
2023-03-17T10:21:41.147Z,100824.91
2023-03-17T10:24:10.333Z,100827.59
2023-03-17T10:26:41.943Z,100831.97
2023-03-17T10:29:12.704Z,100819.13
2023-03-17T10:31:42.032Z,100822.63
2023-03-17T10:34:18.537Z,100825.13
2023-03-17T10:36:47.804Z,100820.34
2023-03-17T10:39:18.682Z,100814.94
2023-03-17T10:41:53.282Z,100811.22
2023-03-17T10:44:29.351Z,100805.81
2023-03-17T10:46:58.745Z,100808.31
2023-03-17T10:49:27.240Z,100808.09
2023-03-17T10:51:55.702Z,100806.00
2023-03-17T10:54:24.585Z,100802.06
2023-03-17T10:56:59.705Z,100800.41
2023-03-17T11:02:07.997Z,100796.28
2023-03-17T11:04:36.844Z,100791.69
2023-03-17T11:07:07.709Z,100793.97
2023-03-17T11:09:35.806Z,100791.47
2023-03-17T11:12:05.758Z,100789.19
2023-03-17T11:14:33.771Z,100783.78
2023-03-17T11:17:04.236Z,100777.34
2023-03-17T11:19:41.135Z,100777.34
2023-03-17T11:22:11.663Z,100784.19
2023-03-17T11:24:42.841Z,100782.31
2023-03-17T11:27:13.123Z,100768.00
2023-03-17T11:29:50.316Z,100765.09
2023-03-17T11:32:27.552Z,100768.41
2023-03-17T11:35:02.644Z,100762.16
2023-03-17T11:37:38.685Z,100756.56
2023-03-17T11:40:12.169Z,100766.31
2023-03-17T11:42:43.338Z,100755.50
2023-03-17T11:45:16.524Z,100741.81
2023-03-17T11:48:06.139Z,100749.69
2023-03-17T11:50:36.496Z,100740.56
2023-03-17T11:53:12.261Z,100734.31
2023-03-17T11:55:44.672Z,100744.91
2023-03-17T11:58:15.387Z,100739.31
2023-03-17T12:00:46.190Z,100727.66
2023-03-17T12:03:24.984Z,100724.97
2023-03-17T12:05:55.730Z,100722.25
2023-03-17T12:08:25.860Z,100726.38
2023-03-17T12:10:55.682Z,100721.84
2023-03-17T12:13:24.916Z,100720.97
2023-03-17T12:15:54.165Z,100712.69
2023-03-17T12:18:26.008Z,100710.81
2023-03-17T12:20:56.768Z,100713.50
2023-03-17T12:23:30.174Z,100707.91
2023-03-17T12:26:00.498Z,100708.91
2023-03-17T12:28:29.900Z,100705.19
2023-03-17T12:31:01.203Z,100701.44
2023-03-17T12:33:32.254Z,100704.16
2023-03-17T12:36:01.265Z,100699.56
2023-03-17T12:38:32.273Z,100706.41
2023-03-17T12:41:23.798Z,100699.38
2023-03-17T12:44:00.891Z,100685.41
2023-03-17T12:46:47.664Z,100682.72
2023-03-17T12:49:39.259Z,100686.25
2023-03-17T12:52:24.886Z,100687.72
2023-03-17T12:54:53.706Z,100681.50
2023-03-17T12:57:22.709Z,100679.63
2023-03-17T12:59:51.378Z,100673.19
2023-03-17T13:02:23.774Z,100672.97
2023-03-17T13:04:58.046Z,100667.56
2023-03-17T13:07:27.025Z,100665.66
2023-03-17T13:10:19.466Z,100662.97
2023-03-17T13:13:06.885Z,100659.25
2023-03-17T13:16:09.787Z,100663.38
2023-03-17T13:19:24.269Z,100656.09
2023-03-17T13:22:21.828Z,100652.34
2023-03-17T13:24:51.171Z,100649.66
2023-03-17T13:27:44.060Z,100647.56
2023-03-17T13:30:43.993Z,100650.25
2023-03-17T13:33:23.747Z,100644.66
2023-03-17T13:36:28.669Z,100648.19
2023-03-17T13:39:19.736Z,100638.19
2023-03-17T13:41:53.310Z,100633.41
2023-03-17T13:44:32.506Z,100634.84
2023-03-17T13:47:12.994Z,100641.91
2023-03-17T13:49:40.973Z,100637.31
2023-03-17T13:52:09.562Z,100638.19
2023-03-17T13:54:42.754Z,100623.81
2023-03-17T13:57:24.466Z,100622.78
2023-03-17T13:59:57.364Z,100623.59
2023-03-17T14:02:27.246Z,100619.84
2023-03-17T14:04:56.457Z,100621.53
2023-03-17T14:07:25.270Z,100619.84
2023-03-17T14:09:59.033Z,100608.81
2023-03-17T14:12:29.570Z,100605.91
2023-03-17T14:15:06.975Z,100597.81
2023-03-17T14:17:37.775Z,100593.22
2023-03-17T14:20:08.471Z,100601.09
2023-03-17T14:22:42.529Z,100598.19
2023-03-17T14:25:17.838Z,100604.44
2023-03-17T14:27:46.352Z,100601.72
2023-03-17T14:30:18.976Z,100592.34
2023-03-17T14:32:51.782Z,100587.31
2023-03-17T14:35:19.847Z,100594.41
2023-03-17T14:37:47.838Z,100591.06
2023-03-17T14:40:25.207Z,100591.44
2023-03-17T14:42:53.146Z,100583.13
2023-03-17T14:45:23.073Z,100578.47
2023-03-17T14:47:51.309Z,100581.59
2023-03-17T14:50:26.096Z,100579.28
2023-03-17T14:52:54.209Z,100579.22
2023-03-17T14:55:23.506Z,100578.38
2023-03-17T14:57:52.757Z,100575.41
2023-03-17T15:00:34.329Z,100567.44
2023-03-17T15:03:05.283Z,100569.88
2023-03-17T15:05:38.974Z,100568.97
2023-03-17T15:08:39.467Z,100557.28
2023-03-17T15:11:08.831Z,100553.59
2023-03-17T15:13:37.653Z,100557.69
2023-03-17T15:16:08.555Z,100549.03
2023-03-17T15:18:36.967Z,100548.78
2023-03-17T15:21:05.115Z,100551.41
2023-03-17T15:23:40.122Z,100548.84
2023-03-17T15:26:22.191Z,100546.75
2023-03-17T15:28:50.069Z,100541.31
2023-03-17T15:31:18.060Z,100538.81
2023-03-17T15:33:46.427Z,100538.81
2023-03-17T15:36:31.218Z,100544.69
2023-03-17T15:39:00.596Z,100536.41
2023-03-17T15:41:29.996Z,100536.88
2023-03-17T15:43:58.000Z,100532.13
2023-03-17T15:46:27.475Z,100539.84
2023-03-17T15:48:55.656Z,100534.91
2023-03-17T15:51:23.590Z,100538.28
2023-03-17T15:53:51.524Z,100538.94
2023-03-17T15:56:20.675Z,100549.03
2023-03-17T15:58:52.355Z,100549.28
2023-03-17T16:01:20.766Z,100545.84
2023-03-17T16:03:56.385Z,100551.09
2023-03-17T16:06:24.416Z,100549.50
2023-03-17T16:08:52.604Z,100548.72
2023-03-17T16:11:25.616Z,100550.22
2023-03-17T16:13:56.080Z,100544.63
2023-03-17T16:16:27.871Z,100545.25
2023-03-17T16:18:56.113Z,100548.84
2023-03-17T16:21:24.040Z,100550.34
2023-03-17T16:23:51.997Z,100550.97
2023-03-17T16:26:20.249Z,100554.38
2023-03-17T16:28:49.456Z,100552.31
2023-03-17T16:31:21.366Z,100550.25
2023-03-17T16:33:49.332Z,100548.19
2023-03-17T16:36:18.045Z,100561.97
2023-03-17T16:38:46.614Z,100557.81
2023-03-17T16:41:20.512Z,100558.44
2023-03-17T16:43:53.788Z,100558.91
2023-03-17T16:46:23.137Z,100562.03
2023-03-17T16:48:51.338Z,100563.28
2023-03-17T16:51:19.391Z,100565.59
2023-03-17T16:53:47.580Z,100564.16
2023-03-17T16:56:18.213Z,100562.50
2023-03-17T16:58:46.724Z,100565.44
2023-03-17T17:01:16.758Z,100570.84
2023-03-17T17:03:46.208Z,100570.22
2023-03-17T17:06:15.454Z,100562.53
2023-03-17T17:08:44.275Z,100566.28
2023-03-17T17:11:13.769Z,100561.94
2023-03-17T17:13:42.081Z,100551.31
2023-03-17T17:16:13.477Z,100559.66
2023-03-17T17:21:38.398Z,100562.13
2023-03-17T17:24:06.718Z,100555.91
2023-03-17T17:26:34.624Z,100563.41
2023-03-17T17:29:02.613Z,100563.59
2023-03-17T17:31:30.851Z,100570.06
2023-03-17T17:34:08.093Z,100566.53
2023-03-17T17:36:36.197Z,100566.94
2023-03-17T17:39:06.628Z,100563.41
2023-03-17T17:41:34.909Z,100566.34
2023-03-17T17:44:02.935Z,100563.03
2023-03-17T17:46:31.023Z,100562.19
2023-03-17T17:48:58.962Z,100560.53
2023-03-17T17:51:28.771Z,100566.34
2023-03-17T17:53:56.731Z,100551.81
2023-03-17T17:56:26.158Z,100560.97
2023-03-17T17:58:54.189Z,100558.69
2023-03-17T18:01:22.818Z,100563.25
2023-03-17T18:04:12.803Z,100564.28
2023-03-17T18:06:40.795Z,100560.75
2023-03-17T18:09:08.950Z,100561.00
2023-03-17T18:11:38.642Z,100565.53
2023-03-17T18:14:06.917Z,100564.72
2023-03-17T18:16:35.969Z,100564.97
2023-03-17T18:19:04.071Z,100573.88
2023-03-17T18:21:32.176Z,100567.66
2023-03-17T18:24:00.146Z,100564.13
2023-03-17T18:26:28.622Z,100565.97
2023-03-17T18:28:58.038Z,100564.34
2023-03-17T18:31:27.308Z,100566.41
2023-03-17T18:34:12.662Z,100564.75
2023-03-17T18:36:40.701Z,100570.16
2023-03-17T18:39:08.987Z,100573.06
2023-03-17T18:41:36.917Z,100573.06
2023-03-17T18:44:07.432Z,100569.75
2023-03-17T18:46:35.752Z,100568.09
2023-03-17T18:49:16.111Z,100572.66
2023-03-17T18:51:44.092Z,100569.34
2023-03-17T18:54:12.259Z,100572.88
2023-03-17T18:56:40.230Z,100568.72
2023-03-17T18:59:09.696Z,100574.13
2023-03-17T19:01:37.921Z,100578.50
2023-03-17T19:04:06.716Z,100574.94
2023-03-17T19:06:35.456Z,100582.22
2023-03-17T19:09:03.907Z,100572.47
2023-03-17T19:11:32.381Z,100577.06
2023-03-17T19:14:01.252Z,100578.94
2023-03-17T19:16:31.260Z,100575.38
2023-03-17T19:18:59.742Z,100579.94
2023-03-17T19:21:27.845Z,100577.25
2023-03-17T19:23:55.782Z,100571.03
2023-03-17T19:26:23.683Z,100571.03
2023-03-17T19:28:51.658Z,100579.13
2023-03-17T19:31:19.779Z,100572.91
2023-03-17T19:33:49.204Z,100580.19
2023-03-17T19:36:17.207Z,100569.38
2023-03-17T19:38:45.152Z,100571.22
2023-03-17T19:41:13.644Z,100567.69
2023-03-17T19:43:41.883Z,100573.94
2023-03-17T19:46:10.429Z,100576.63
2023-03-17T19:48:38.450Z,100565.22
2023-03-17T19:51:08.204Z,100565.22
2023-03-17T19:53:37.356Z,100561.91
2023-03-17T19:56:05.842Z,100557.53
2023-03-17T19:58:33.799Z,100562.09
2023-03-17T20:01:01.817Z,100548.84
2023-03-17T20:03:29.895Z,100551.53
2023-03-17T20:05:57.875Z,100546.94
2023-03-17T20:08:27.247Z,100539.06
2023-03-17T20:10:55.291Z,100539.06
2023-03-17T20:13:23.263Z,100540.09
2023-03-17T20:15:51.588Z,100537.41
2023-03-17T20:18:19.860Z,100535.72
2023-03-17T20:20:50.342Z,100534.06
2023-03-17T20:23:18.468Z,100527.03
2023-03-17T20:25:47.840Z,100532.63
2023-03-17T20:28:16.699Z,100527.03
2023-03-17T20:30:45.250Z,100531.59
2023-03-17T20:33:13.545Z,100528.28
2023-03-17T20:35:42.086Z,100529.09
2023-03-17T20:38:10.540Z,100530.75
2023-03-17T20:40:38.641Z,100531.81
2023-03-17T20:43:07.951Z,100529.09
2023-03-17T20:45:36.024Z,100524.75
2023-03-17T20:48:05.045Z,100534.50
2023-03-17T20:50:33.489Z,100533.69
2023-03-17T20:53:01.714Z,100527.47
2023-03-17T20:55:30.807Z,100523.91
2023-03-17T20:57:59.863Z,100521.19
2023-03-17T21:00:32.004Z,100525.78
2023-03-17T21:03:01.499Z,100529.53
2023-03-17T21:05:29.631Z,100524.34
2023-03-17T21:07:57.697Z,100524.97
2023-03-17T21:10:25.697Z,100525.38
2023-03-17T21:12:53.607Z,100524.56
2023-03-17T21:15:22.893Z,100521.25
2023-03-17T21:17:52.363Z,100519.34
2023-03-17T21:20:21.198Z,100516.84
2023-03-17T21:22:49.202Z,100519.56
2023-03-17T21:25:17.303Z,100509.81
2023-03-17T21:27:46.069Z,100506.28
2023-03-17T21:30:14.519Z,100503.78
2023-03-17T21:32:42.897Z,100507.13
2023-03-17T21:35:12.735Z,100504.81
2023-03-17T21:37:40.695Z,100502.09
2023-03-17T21:40:10.729Z,100495.06
2023-03-17T21:42:39.564Z,100501.28
2023-03-17T21:45:08.263Z,100499.41
2023-03-17T21:47:36.838Z,100498.59
2023-03-17T21:50:05.188Z,100488.63
2023-03-17T21:52:34.541Z,100483.22
2023-03-17T21:55:02.639Z,100484.03
2023-03-17T21:57:30.969Z,100493.00
2023-03-17T21:59:58.960Z,100485.91
2023-03-17T22:02:28.189Z,100487.78
2023-03-17T22:05:08.734Z,100488.63
2023-03-17T22:07:38.792Z,100485.09
2023-03-17T22:10:07.426Z,100478.00
2023-03-17T22:12:35.404Z,100478.00
2023-03-17T22:15:04.051Z,100466.38
2023-03-17T22:17:32.627Z,100473.88
2023-03-17T22:20:00.681Z,100463.91
2023-03-17T22:22:28.889Z,100463.06
2023-03-17T22:24:58.254Z,100466.19
2023-03-17T22:27:27.510Z,100462.69
2023-03-17T22:29:56.903Z,100456.44
2023-03-17T22:32:24.897Z,100459.16
2023-03-17T22:34:53.144Z,100456.66
2023-03-17T22:37:21.237Z,100460.19
2023-03-17T22:39:49.157Z,100446.09
2023-03-17T22:42:18.583Z,100450.63
2023-03-17T22:44:46.612Z,100441.94
2023-03-17T22:47:14.613Z,100448.97
2023-03-17T22:49:42.595Z,100440.06
2023-03-17T22:52:10.910Z,100441.09
2023-03-17T22:54:38.809Z,100438.63
2023-03-17T22:57:06.879Z,100438.63
2023-03-17T22:59:36.265Z,100435.91
2023-03-17T23:02:04.226Z,100434.03
2023-03-17T23:04:47.542Z,100425.94
2023-03-17T23:07:17.048Z,100416.78
2023-03-17T23:09:45.428Z,100415.97
2023-03-17T23:12:13.671Z,100418.66
2023-03-17T23:14:43.747Z,100412.44
2023-03-17T23:17:11.792Z,100407.06
2023-03-17T23:19:52.153Z,100405.41
2023-03-17T23:22:20.095Z,100402.72
2023-03-17T23:24:48.012Z,100405.41
2023-03-17T23:27:15.911Z,100408.31
2023-03-17T23:29:45.377Z,100408.31
2023-03-17T23:32:13.869Z,100411.22
2023-03-17T23:34:42.081Z,100405.84
2023-03-17T23:37:10.152Z,100397.94
2023-03-17T23:39:38.155Z,100402.50
2023-03-17T23:42:06.508Z,100409.78
2023-03-17T23:44:34.553Z,100402.94
2023-03-17T23:47:04.379Z,100404.59
2023-03-17T23:49:32.353Z,100399.19
2023-03-17T23:52:00.630Z,100403.13
2023-03-17T23:54:29.106Z,100396.91
2023-03-17T23:56:57.217Z,100394.22
2023-03-17T23:59:25.316Z,100388.00
